createdAt,value
2019-05-12T00:01:54.002Z,17.23
2019-05-12T00:06:58.530Z,17.98
2019-05-12T00:12:01.813Z,13.85
2019-05-12T00:17:05.157Z,18.90
2019-05-12T00:22:08.242Z,15.40
2019-05-12T00:27:14.946Z,14.73
2019-05-12T00:37:21.236Z,13.30
2019-05-12T00:42:24.204Z,11.20
2019-05-12T00:47:28.024Z,16.23
2019-05-12T00:52:31.142Z,12.23
2019-05-12T00:57:34.316Z,16.82
2019-05-12T01:02:37.972Z,19.55
2019-05-12T01:07:41.136Z,12.98
2019-05-12T01:12:44.255Z,14.68
2019-05-12T01:17:47.773Z,11.03
2019-05-12T01:22:51.023Z,13.00
2019-05-12T01:27:53.950Z,19.37
2019-05-12T01:32:58.106Z,12.68
2019-05-12T01:38:01.624Z,13.57
2019-05-12T01:43:04.784Z,14.70
2019-05-12T01:48:08.981Z,13.43
2019-05-12T01:53:12.978Z,13.65
2019-05-12T01:58:19.047Z,10.63
2019-05-12T02:03:21.102Z,12.82
2019-05-12T02:08:33.069Z,13.38
2019-05-12T02:13:38.014Z,11.08
2019-05-12T02:18:41.005Z,11.75
2019-05-12T02:23:44.038Z,12.13
2019-05-12T02:28:48.074Z,11.88
2019-05-12T02:33:51.230Z,12.35
2019-05-12T02:38:55.951Z,15.05
2019-05-12T02:43:59.174Z,15.20
2019-05-12T02:49:04.875Z,17.45
2019-05-12T02:54:07.512Z,13.72
2019-05-12T02:59:11.699Z,13.40
2019-05-12T03:04:17.234Z,14.55
2019-05-12T03:09:24.343Z,13.03
2019-05-12T03:14:27.038Z,12.18
2019-05-12T03:19:30.007Z,13.00
2019-05-12T03:24:34.208Z,16.20
2019-05-12T03:29:37.363Z,15.25
2019-05-12T03:34:40.822Z,11.50
2019-05-12T03:39:44.734Z,12.45
2019-05-12T03:44:47.972Z,16.37
2019-05-12T03:49:54.234Z,14.53
2019-05-12T03:54:58.095Z,14.50
2019-05-12T04:00:01.052Z,15.03
2019-05-12T04:05:05.622Z,14.00
2019-05-12T04:10:09.244Z,17.17
2019-05-12T04:15:15.197Z,17.23
2019-05-12T04:20:17.606Z,16.63
2019-05-12T04:25:20.546Z,16.05
2019-05-12T04:30:25.179Z,13.62
2019-05-12T04:35:28.495Z,14.20
2019-05-12T04:40:31.553Z,11.77
2019-05-12T04:45:35.139Z,16.48
2019-05-12T04:50:38.400Z,13.32
2019-05-12T04:55:44.229Z,13.88
2019-05-12T05:00:46.544Z,14.87
2019-05-12T05:05:49.635Z,12.40
2019-05-12T05:10:54.775Z,11.33
2019-05-12T05:15:57.542Z,16.70
2019-05-12T05:21:00.466Z,16.17
2019-05-12T05:26:03.455Z,12.47
2019-05-12T05:31:06.483Z,16.75
2019-05-12T05:36:15.137Z,13.35
2019-05-12T05:41:14.343Z,13.18
2019-05-12T05:46:17.472Z,14.45
2019-05-12T05:51:20.626Z,16.23
2019-05-12T05:56:38.389Z,16.27
2019-05-12T06:01:28.494Z,18.80
2019-05-12T06:06:31.554Z,19.57
2019-05-12T06:11:36.471Z,16.02
2019-05-12T06:16:39.480Z,19.45
2019-05-12T06:21:43.990Z,15.58
2019-05-12T06:26:57.662Z,13.18
2019-05-12T06:31:54.248Z,18.15
2019-05-12T06:37:03.049Z,14.33
2019-05-12T06:42:12.362Z,12.33
2019-05-12T06:47:08.452Z,11.18
2019-05-12T06:52:11.589Z,10.43
2019-05-12T06:57:24.045Z,14.55
2019-05-12T07:02:19.441Z,11.68
2019-05-12T07:07:25.554Z,11.93
2019-05-12T07:12:33.562Z,9.43
2019-05-12T07:17:49.239Z,10.32
2019-05-12T07:22:48.497Z,10.03
2019-05-12T07:27:58.411Z,8.83
2019-05-12T07:33:01.377Z,12.60
2019-05-12T07:38:05.205Z,10.30
2019-05-12T07:43:16.275Z,10.28
2019-05-12T07:48:16.051Z,13.07
2019-05-12T07:53:19.173Z,12.80
2019-05-12T07:58:23.986Z,11.28
2019-05-12T08:03:27.087Z,14.65
2019-05-12T08:08:33.850Z,8.80
2019-05-12T08:18:41.123Z,10.25
2019-05-12T08:23:44.691Z,12.27
2019-05-12T08:28:47.723Z,10.28
2019-05-12T08:33:50.705Z,11.57
2019-05-12T08:38:53.819Z,9.78
2019-05-12T08:43:58.469Z,10.20
2019-05-12T08:49:03.017Z,8.73
2019-05-12T08:54:08.106Z,12.40
2019-05-12T08:59:17.571Z,10.47
2019-05-12T09:04:18.375Z,12.70
2019-05-12T09:09:23.255Z,11.23
2019-05-12T09:14:26.649Z,12.40
2019-05-12T09:19:29.615Z,12.68
2019-05-12T09:24:33.755Z,10.95
2019-05-12T09:29:37.084Z,7.25
2019-05-12T09:34:46.882Z,12.20
2019-05-12T09:39:47.332Z,6.17
2019-05-12T09:44:50.390Z,8.65
2019-05-12T09:49:53.618Z,6.25
2019-05-12T09:54:56.706Z,8.63
2019-05-12T09:59:59.806Z,6.47
2019-05-12T10:05:03.917Z,7.00
2019-05-12T10:10:07.724Z,8.43
2019-05-12T10:15:13.490Z,8.80
2019-05-12T10:20:16.899Z,7.45
2019-05-12T10:25:23.198Z,8.73
2019-05-12T10:30:25.245Z,8.13
2019-05-12T10:35:28.467Z,11.63
2019-05-12T10:40:33.621Z,9.53
2019-05-12T10:45:36.568Z,12.10
2019-05-12T10:50:39.795Z,10.93
2019-05-12T10:55:44.052Z,10.03
2019-05-12T11:00:47.510Z,12.47
2019-05-12T11:05:56.673Z,9.83
2019-05-12T11:11:01.208Z,5.78
2019-05-12T11:16:00.945Z,5.35
2019-05-12T11:21:04.001Z,5.35
2019-05-12T11:26:07.036Z,7.17
2019-05-12T11:31:10.454Z,10.60
2019-05-12T11:36:13.641Z,9.73
2019-05-12T11:41:20.282Z,18.77
2019-05-12T11:46:23.645Z,20.40
2019-05-12T11:51:30.253Z,21.75
2019-05-12T11:56:33.644Z,34.53
2019-05-12T12:01:39.631Z,44.35
2019-05-12T12:06:43.703Z,47.23
2019-05-12T12:11:46.624Z,38.08
2019-05-12T12:16:50.483Z,44.38
2019-05-12T12:21:54.580Z,42.83
2019-05-12T12:26:57.729Z,40.52
2019-05-12T12:32:00.679Z,41.08
2019-05-12T12:37:03.672Z,38.80
2019-05-12T12:42:06.778Z,36.60
2019-05-12T12:47:09.728Z,38.80
2019-05-12T12:52:13.745Z,34.35
2019-05-12T12:57:19.129Z,32.58
2019-05-12T13:02:24.503Z,26.70
2019-05-12T13:07:27.258Z,24.32
2019-05-12T13:12:33.855Z,27.75
2019-05-12T13:17:41.547Z,26.42
2019-05-12T13:22:40.216Z,27.73
2019-05-12T13:27:43.196Z,30.10
2019-05-12T13:32:46.234Z,24.77
2019-05-12T13:37:50.410Z,28.27
2019-05-12T13:42:54.552Z,26.77
2019-05-12T13:47:57.620Z,22.45
2019-05-12T13:53:01.290Z,20.88
2019-05-12T13:58:05.630Z,19.17
2019-05-12T14:03:09.820Z,16.50
2019-05-12T14:08:14.677Z,18.45
2019-05-12T14:13:18.070Z,23.47
2019-05-12T14:18:21.135Z,28.45
2019-05-12T14:23:24.124Z,17.42
2019-05-12T14:28:27.514Z,21.10
2019-05-12T14:33:37.461Z,20.12
2019-05-12T14:38:36.031Z,24.70
2019-05-12T14:43:39.399Z,22.15
2019-05-12T14:48:48.418Z,19.73
2019-05-12T14:53:48.120Z,18.48
2019-05-12T14:58:56.453Z,19.42
2019-05-12T15:03:56.371Z,15.03
2019-05-12T15:08:59.443Z,12.20
2019-05-12T15:14:03.170Z,15.60
2019-05-12T15:19:09.438Z,19.87
2019-05-12T15:24:15.508Z,19.17
2019-05-12T15:29:19.719Z,19.00
2019-05-12T15:34:23.613Z,20.37
2019-05-12T15:39:26.635Z,25.70
2019-05-12T15:44:32.320Z,20.23
2019-05-12T15:49:34.522Z,22.50
2019-05-12T15:54:45.846Z,20.65
2019-05-12T15:59:43.499Z,17.45
2019-05-12T16:04:48.611Z,26.12
2019-05-12T16:09:51.680Z,22.40
2019-05-12T16:14:54.745Z,24.55
2019-05-12T16:19:57.713Z,30.45
2019-05-12T16:25:00.753Z,28.77
2019-05-12T16:30:04.847Z,28.12
2019-05-12T16:35:07.955Z,24.70
2019-05-12T16:40:13.416Z,28.83
2019-05-12T16:45:15.998Z,25.25
2019-05-12T16:50:24.852Z,30.82
2019-05-12T16:55:24.409Z,25.80
2019-05-12T17:00:30.518Z,26.85
2019-05-12T17:05:33.556Z,20.02
2019-05-12T17:10:36.785Z,20.70
2019-05-12T17:15:48.865Z,22.35
2019-05-12T17:20:50.916Z,25.92
2019-05-12T17:25:54.021Z,23.98
2019-05-12T17:30:57.076Z,18.32
2019-05-12T17:36:03.127Z,19.92
2019-05-12T17:41:05.464Z,20.60
2019-05-12T17:46:11.434Z,19.12
2019-05-12T17:51:13.787Z,24.87
2019-05-12T17:56:16.963Z,23.30
2019-05-12T18:01:22.998Z,21.48
2019-05-12T18:06:26.952Z,19.82
2019-05-12T18:11:30.160Z,20.32
2019-05-12T18:16:33.951Z,14.80
2019-05-12T18:21:37.077Z,16.00
2019-05-12T18:26:40.246Z,14.35
2019-05-12T18:31:43.710Z,10.60
2019-05-12T18:36:49.021Z,11.83
2019-05-12T18:41:54.152Z,14.35
2019-05-12T18:46:57.069Z,13.08
2019-05-12T18:52:00.102Z,14.33
2019-05-12T18:57:07.224Z,16.65
2019-05-12T19:02:08.428Z,14.63
2019-05-12T19:07:11.854Z,14.73
2019-05-12T19:12:20.846Z,14.78
2019-05-12T19:17:20.903Z,19.70
2019-05-12T19:22:24.344Z,14.20
2019-05-12T19:27:27.513Z,16.48
2019-05-12T19:32:30.564Z,13.60
2019-05-12T19:37:33.969Z,11.03
2019-05-12T19:42:37.085Z,8.40
2019-05-12T19:47:40.250Z,11.70
2019-05-12T19:52:43.608Z,6.90
2019-05-12T19:57:49.960Z,10.58
2019-05-12T20:02:53.744Z,7.72
2019-05-12T20:07:56.925Z,6.93
2019-05-12T20:12:59.924Z,6.97
2019-05-12T20:18:04.273Z,9.55
2019-05-12T20:23:07.529Z,9.53
2019-05-12T20:28:11.574Z,10.05
2019-05-12T20:33:15.454Z,8.28
2019-05-12T20:38:18.454Z,9.30
2019-05-12T20:43:23.999Z,8.25
2019-05-12T20:48:30.988Z,8.03
2019-05-12T20:53:33.745Z,8.38
2019-05-12T20:58:43.053Z,6.55
2019-05-12T21:03:46.264Z,8.75
2019-05-12T21:08:53.138Z,7.78
2019-05-12T21:13:51.079Z,6.20
2019-05-12T21:19:05.903Z,8.03
2019-05-12T21:23:59.582Z,10.03
2019-05-12T21:29:04.744Z,7.17
2019-05-12T21:34:15.060Z,10.82
2019-05-12T21:39:13.949Z,6.80
2019-05-12T21:44:17.285Z,6.20
2019-05-12T21:49:20.344Z,8.78
2019-05-12T21:54:24.222Z,11.68
2019-05-12T21:59:28.915Z,6.08
2019-05-12T22:04:40.987Z,8.20
2019-05-12T22:09:41.752Z,8.35
2019-05-12T22:14:43.706Z,8.38
2019-05-12T22:19:47.435Z,6.03
2019-05-12T22:24:50.439Z,7.45
2019-05-12T22:29:53.399Z,6.10
2019-05-12T22:34:56.529Z,7.30
2019-05-12T22:39:59.597Z,8.53
2019-05-12T22:45:05.815Z,10.38
2019-05-12T22:50:08.626Z,7.55
2019-05-12T22:55:14.007Z,8.43
2019-05-12T23:00:19.220Z,9.95
2019-05-12T23:05:24.186Z,7.50
2019-05-12T23:10:27.396Z,8.38
2019-05-12T23:15:30.462Z,7.03
2019-05-12T23:20:35.676Z,6.22
2019-05-12T23:25:38.613Z,8.60
2019-05-12T23:30:43.925Z,7.62
2019-05-12T23:35:46.563Z,10.45
2019-05-12T23:40:49.586Z,5.33
2019-05-12T23:45:53.358Z,6.00
2019-05-12T23:50:56.598Z,6.90
2019-05-12T23:55:59.593Z,5.12
